17:23
Airports
History
Links
Donate
Help keep this website running!
PayPal
Bitcoin
This page is community maintained. The information is intended for PC simulator navigation or reference.
Always use approved charts for navigation.
LIPR
Rimini Mil
Rimini Mil (LIPR)
Rimini, Emilia-Romagna, Italy (47924)
(C)
Lat/Lng:44° 1' 13.03" N / 12° 36' 42.29" E
44.020287 / 12.611746
Elevation:41'ft / 12mMSL
ID / ICAO:LIPR
Runways:1
Longest:13-31
Asphalt 2,993m / 9,821ft
Controlled:Yes
METAR16:45 GMT 2017-11-20
Altimeter: 30.06
Visibility: 6.2 statute miles
Wind: 4 knots (from 140°)
Temp: 10°c / 50°f
Humidity: 66.2%

METAR: LIPR 201645Z 14004KT CAVOK 10/04 Q1018

(Powered by phpweather)
Airport Radio Frequencies
Ground: 121.6
Tower: 122.1
Approach: 122.1
Nearby VORs <50NM
Nearby NDBs
Runway 13 / 31
Dimensions:2993.4 x 45.1m 9821' x 148'ft
Surface:Asphalt
Edge Lights:Medium intensity
Runway 13 [A]Runway 31 [B]
Heading:127°TH 307°TH
Lat:
Lng:
44° 1' 42.71"N
12° 35' 49.07"E
44° 0' 43.35"N
12° 37' 35.5"E
ALS:Calvert ILS Cat IICalvert ILS Cat II
TDZ:Yes, lighted
User Notes and Comments
44° 1' 13.03" N / 12° 36' 42.29" E
Distance To
Airport ID:
Nearby Airports
(C) CERVIA 20.7 NM
LIPC ( WX ) NW 313°
4 Fano 24.7 NM
LIDF ESE 123°
(C) FORLI 29.5 NM
LIPK ( WX ) WNW 294°
(U) RAVENNA 30.5 NM
LIDR NW 321°
(U) Lugo di Romagna 45.6 NM
LIDG NW 304°
(C) FALCONARA 46.7 NM
LIPY ( WX ) SE 126°
4 Arezzo 54.6 NM
LIQB ( WX ) SW 224°
VFR Chart
Flight Planning at SkyVector.com